Pekan, Malaysia
Current Conditions -  °F | °C
As of 2:00 PM on Sunday 23 Nov 2014 (Local Time) from WMKD Reporting Station
Broken Clouds Broken Clouds  
Wind Chill: 88°   Ceiling: 28000
Heat Index: 102°   Visibility: 6mi
Dew Point: 79°   Wind: 5mph
Humidity: 75%   Direction: 110°ESE
Pressure: 29.77"   Gusts: NA
Location:  3.5°N, 103.42°E
Report Text: WMKD 230600Z 11004KT 9999 SCT018 BKN280 31/26 Q1008 NOSIG
Loading
Personal Weather Stations






























Interactive Weather Map New forecast layout! Learn more

10-Day Weather Forecast

Advertisements
Track Severe Weather on mobile